sensor_id;sensor_type;location;lat;lon;timestamp;P1;durP1;ratioP1;P2;durP2;ratioP2
49450;SDS011;35336;48.400;10.886;2023-12-07T00:00:11;17.73;;;14.23;;
49450;SDS011;35336;48.400;10.886;2023-12-07T00:00:27;18.15;;;14.43;;
49450;SDS011;35336;48.400;10.886;2023-12-07T00:00:42;19.83;;;15.13;;
49450;SDS011;35336;48.400;10.886;2023-12-07T00:00:57;19.83;;;15.23;;
49450;SDS011;35336;48.400;10.886;2023-12-07T00:01:13;18.77;;;14.40;;
49450;SDS011;35336;48.400;10.886;2023-12-07T00:01:28;18.43;;;14.23;;
49450;SDS011;35336;48.400;10.886;2023-12-07T00:01:45;18.27;;;14.73;;
49450;SDS011;35336;48.400;10.886;2023-12-07T00:02:01;19.03;;;14.53;;
49450;SDS011;35336;48.400;10.886;2023-12-07T00:02:18;19.43;;;14.47;;
49450;SDS011;35336;48.400;10.886;2023-12-07T00:02:33;19.88;;;14.95;;
49450;SDS011;35336;48.400;10.886;2023-12-07T00:02:49;20.27;;;14.77;;
49450;SDS011;35336;48.400;10.886;2023-12-07T00:03:04;20.17;;;15.13;;
49450;SDS011;35336;48.400;10.886;2023-12-07T00:03:19;18.23;;;14.47;;
49450;SDS011;35336;48.400;10.886;2023-12-07T00:03:34;17.93;;;13.93;;
49450;SDS011;35336;48.400;10.886;2023-12-07T00:03:50;18.75;;;14.90;;
49450;SDS011;35336;48.400;10.886;2023-12-07T00:04:05;19.63;;;15.70;;
49450;SDS011;35336;48.400;10.886;2023-12-07T00:04:20;19.67;;;15.53;;
49450;SDS011;35336;48.400;10.886;2023-12-07T00:04:36;20.40;;;15.47;;
49450;SDS011;35336;48.400;10.886;2023-12-07T00:04:51;20.05;;;15.27;;
49450;SDS011;35336;48.400;10.886;2023-12-07T00:05:06;19.57;;;15.43;;
49450;SDS011;35336;48.400;10.886;2023-12-07T00:05:22;20.07;;;15.13;;
49450;SDS011;35336;48.400;10.886;2023-12-07T00:05:37;20.13;;;14.88;;
49450;SDS011;35336;48.400;10.886;2023-12-07T00:05:54;20.20;;;15.33;;
49450;SDS011;35336;48.400;10.886;2023-12-07T00:06:10;20.63;;;15.70;;
49450;SDS011;35336;48.400;10.886;2023-12-07T00:06:30;22.95;;;15.80;;
49450;SDS011;35336;48.400;10.886;2023-12-07T00:06:45;23.70;;;15.88;;
49450;SDS011;35336;48.400;10.886;2023-12-07T00:07:00;20.40;;;15.30;;
49450;SDS011;35336;48.400;10.886;2023-12-07T00:07:15;19.08;;;14.65;;
49450;SDS011;35336;48.400;10.886;2023-12-07T00:07:33;19.73;;;14.75;;
49450;SDS011;35336;48.400;10.886;2023-12-07T00:07:48;18.65;;;14.60;;
49450;SDS011;35336;48.400;10.886;2023-12-07T00:08:04;18.00;;;14.27;;
49450;SDS011;35336;48.400;10.886;2023-12-07T00:08:19;19.20;;;14.13;;
49450;SDS011;35336;48.400;10.886;2023-12-07T00:08:37;20.77;;;15.25;;
49450;SDS011;35336;48.400;10.886;2023-12-07T00:08:52;19.40;;;15.30;;
49450;SDS011;35336;48.400;10.886;2023-12-07T00:09:07;18.27;;;14.63;;
49450;SDS011;35336;48.400;10.886;2023-12-07T00:09:25;20.00;;;14.90;;
49450;SDS011;35336;48.400;10.886;2023-12-07T00:09:41;19.50;;;14.97;;
49450;SDS011;35336;48.400;10.886;2023-12-07T00:09:56;19.10;;;14.95;;
49450;SDS011;35336;48.400;10.886;2023-12-07T00:10:11;19.53;;;14.90;;
49450;SDS011;35336;48.400;10.886;2023-12-07T00:10:26;19.43;;;15.10;;
49450;SDS011;35336;48.400;10.886;2023-12-07T00:10:42;19.67;;;15.33;;
49450;SDS011;35336;48.400;10.886;2023-12-07T00:10:59;20.52;;;14.68;;
49450;SDS011;35336;48.400;10.886;2023-12-07T00:11:15;20.77;;;14.87;;
49450;SDS011;35336;48.400;10.886;2023-12-07T00:11:30;20.43;;;14.77;;
49450;SDS011;35336;48.400;10.886;2023-12-07T00:11:48;19.47;;;14.63;;
49450;SDS011;35336;48.400;10.886;2023-12-07T00:12:03;18.45;;;14.38;;
49450;SDS011;35336;48.400;10.886;2023-12-07T00:12:18;18.45;;;14.52;;
49450;SDS011;35336;48.400;10.886;2023-12-07T00:12:34;19.20;;;15.07;;
49450;SDS011;35336;48.400;10.886;2023-12-07T00:12:49;21.00;;;15.53;;
49450;SDS011;35336;48.400;10.886;2023-12-07T00:13:04;20.97;;;15.57;;
49450;SDS011;35336;48.400;10.886;2023-12-07T00:13:19;18.93;;;14.93;;
49450;SDS011;35336;48.400;10.886;2023-12-07T00:13:35;20.08;;;14.80;;
49450;SDS011;35336;48.400;10.886;2023-12-07T00:13:50;21.73;;;14.63;;
49450;SDS011;35336;48.400;10.886;2023-12-07T00:14:05;19.73;;;14.53;;
49450;SDS011;35336;48.400;10.886;2023-12-07T00:14:20;19.40;;;14.90;;
49450;SDS011;35336;48.400;10.886;2023-12-07T00:14:36;20.33;;;14.70;;
49450;SDS011;35336;48.400;10.886;2023-12-07T00:14:53;20.48;;;15.13;;
49450;SDS011;35336;48.400;10.886;2023-12-07T00:15:09;20.63;;;15.80;;
49450;SDS011;35336;48.400;10.886;2023-12-07T00:15:24;19.73;;;15.48;;
49450;SDS011;35336;48.400;10.886;2023-12-07T00:15:39;19.20;;;14.93;;
49450;SDS011;35336;48.400;10.886;2023-12-07T00:15:57;20.43;;;15.27;;
49450;SDS011;35336;48.400;10.886;2023-12-07T00:16:12;20.42;;;14.80;;
49450;SDS011;35336;48.400;10.886;2023-12-07T00:16:28;19.50;;;14.73;;
49450;SDS011;35336;48.400;10.886;2023-12-07T00:16:43;18.97;;;15.10;;
49450;SDS011;35336;48.400;10.886;2023-12-07T00:17:01;18.83;;;14.97;;
49450;SDS011;35336;48.400;10.886;2023-12-07T00:17:16;19.15;;;15.15;;
49450;SDS011;35336;48.400;10.886;2023-12-07T00:17:31;18.20;;;15.00;;
49450;SDS011;35336;48.400;10.886;2023-12-07T00:17:46;18.67;;;15.10;;
49450;SDS011;35336;48.400;10.886;2023-12-07T00:18:02;19.33;;;15.40;;
49450;SDS011;35336;48.400;10.886;2023-12-07T00:18:20;19.47;;;14.80;;
49450;SDS011;35336;48.400;10.886;2023-12-07T00:18:35;19.70;;;14.32;;
49450;SDS011;35336;48.400;10.886;2023-12-07T00:18:51;19.47;;;14.63;;
49450;SDS011;35336;48.400;10.886;2023-12-07T00:19:06;19.70;;;14.98;;
49450;SDS011;35336;48.400;10.886;2023-12-07T00:19:21;19.80;;;15.07;;
49450;SDS011;35336;48.400;10.886;2023-12-07T00:19:36;19.60;;;14.73;;
49450;SDS011;35336;48.400;10.886;2023-12-07T00:19:52;18.60;;;14.20;;
49450;SDS011;35336;48.400;10.886;2023-12-07T00:20:07;17.95;;;14.02;;
49450;SDS011;35336;48.400;10.886;2023-12-07T00:20:25;17.80;;;14.15;;
49450;SDS011;35336;48.400;10.886;2023-12-07T00:20:41;18.30;;;14.40;;
49450;SDS011;35336;48.400;10.886;2023-12-07T00:20:56;20.43;;;15.07;;
49450;SDS011;35336;48.400;10.886;2023-12-07T00:21:11;21.75;;;15.32;;
49450;SDS011;35336;48.400;10.886;2023-12-07T00:21:27;20.87;;;15.17;;
49450;SDS011;35336;48.400;10.886;2023-12-07T00:21:44;19.80;;;14.83;;
49450;SDS011;35336;48.400;10.886;2023-12-07T00:22:02;19.35;;;14.57;;
49450;SDS011;35336;48.400;10.886;2023-12-07T00:22:17;18.77;;;14.65;;
49450;SDS011;35336;48.400;10.886;2023-12-07T00:22:33;18.77;;;14.77;;
49450;SDS011;35336;48.400;10.886;2023-12-07T00:22:48;19.37;;;14.80;;
49450;SDS011;35336;48.400;10.886;2023-12-07T00:23:03;20.03;;;15.10;;
49450;SDS011;35336;48.400;10.886;2023-12-07T00:23:18;20.37;;;15.30;;
49450;SDS011;35336;48.400;10.886;2023-12-07T00:23:36;19.17;;;15.13;;
49450;SDS011;35336;48.400;10.886;2023-12-07T00:23:51;19.08;;;14.98;;
49450;SDS011;35336;48.400;10.886;2023-12-07T00:24:07;19.70;;;14.87;;
49450;SDS011;35336;48.400;10.886;2023-12-07T00:24:22;19.05;;;14.82;;
49450;SDS011;35336;48.400;10.886;2023-12-07T00:24:40;19.65;;;15.18;;
49450;SDS011;35336;48.400;10.886;2023-12-07T00:24:55;19.57;;;15.00;;
49450;SDS011;35336;48.400;10.886;2023-12-07T00:25:12;18.33;;;14.65;;
49450;SDS011;35336;48.400;10.886;2023-12-07T00:25:28;19.23;;;14.73;;
49450;SDS011;35336;48.400;10.886;2023-12-07T00:25:43;20.27;;;15.10;;
49450;SDS011;35336;48.400;10.886;2023-12-07T00:25:58;19.00;;;14.93;;
49450;SDS011;35336;48.400;10.886;2023-12-07T00:26:13;18.20;;;14.48;;
49450;SDS011;35336;48.400;10.886;2023-12-07T00:26:29;18.30;;;14.87;;
49450;SDS011;35336;48.400;10.886;2023-12-07T00:26:44;20.53;;;14.83;;
49450;SDS011;35336;48.400;10.886;2023-12-07T00:26:59;21.57;;;14.80;;
49450;SDS011;35336;48.400;10.886;2023-12-07T00:27:14;20.05;;;15.70;;
49450;SDS011;35336;48.400;10.886;2023-12-07T00:27:30;19.43;;;15.30;;
49450;SDS011;35336;48.400;10.886;2023-12-07T00:27:45;18.60;;;14.60;;
49450;SDS011;35336;48.400;10.886;2023-12-07T00:28:00;18.87;;;14.97;;
49450;SDS011;35336;48.400;10.886;2023-12-07T00:28:16;20.17;;;15.00;;
49450;SDS011;35336;48.400;10.886;2023-12-07T00:28:31;19.30;;;14.57;;
49450;SDS011;35336;48.400;10.886;2023-12-07T00:28:46;20.70;;;14.50;;
49450;SDS011;35336;48.400;10.886;2023-12-07T00:29:02;21.23;;;14.70;;
49450;SDS011;35336;48.400;10.886;2023-12-07T00:29:17;18.83;;;14.90;;
49450;SDS011;35336;48.400;10.886;2023-12-07T00:29:32;18.38;;;14.73;;
49450;SDS011;35336;48.400;10.886;2023-12-07T00:29:47;19.23;;;14.63;;
49450;SDS011;35336;48.400;10.886;2023-12-07T00:30:03;20.13;;;14.97;;
49450;SDS011;35336;48.400;10.886;2023-12-07T00:30:18;19.92;;;15.25;;
49450;SDS011;35336;48.400;10.886;2023-12-07T00:30:34;19.90;;;15.27;;
49450;SDS011;35336;48.400;10.886;2023-12-07T00:30:49;19.73;;;15.07;;
49450;SDS011;35336;48.400;10.886;2023-12-07T00:31:06;19.10;;;14.95;;
49450;SDS011;35336;48.400;10.886;2023-12-07T00:31:24;19.30;;;15.23;;
49450;SDS011;35336;48.400;10.886;2023-12-07T00:31:42;18.77;;;15.18;;
49450;SDS011;35336;48.400;10.886;2023-12-07T00:31:59;18.30;;;14.70;;
49450;SDS011;35336;48.400;10.886;2023-12-07T00:32:15;19.27;;;15.02;;
49450;SDS011;35336;48.400;10.886;2023-12-07T00:32:30;20.83;;;15.30;;
49450;SDS011;35336;48.400;10.886;2023-12-07T00:32:45;20.23;;;15.17;;
49450;SDS011;35336;48.400;10.886;2023-12-07T00:33:00;18.67;;;14.73;;
49450;SDS011;35336;48.400;10.886;2023-12-07T00:33:16;19.97;;;14.80;;
49450;SDS011;35336;48.400;10.886;2023-12-07T00:33:31;20.52;;;15.32;;
49450;SDS011;35336;48.400;10.886;2023-12-07T00:33:46;21.40;;;15.77;;
49450;SDS011;35336;48.400;10.886;2023-12-07T00:34:01;23.50;;;15.77;;
49450;SDS011;35336;48.400;10.886;2023-12-07T00:34:17;25.03;;;16.60;;
49450;SDS011;35336;48.400;10.886;2023-12-07T00:34:32;26.63;;;18.05;;
49450;SDS011;35336;48.400;10.886;2023-12-07T00:34:47;26.48;;;18.08;;
49450;SDS011;35336;48.400;10.886;2023-12-07T00:35:03;26.37;;;17.93;;
49450;SDS011;35336;48.400;10.886;2023-12-07T00:35:18;26.08;;;17.58;;
49450;SDS011;35336;48.400;10.886;2023-12-07T00:35:34;24.00;;;16.53;;
49450;SDS011;35336;48.400;10.886;2023-12-07T00:35:51;21.57;;;15.37;;
49450;SDS011;35336;48.400;10.886;2023-12-07T00:36:09;21.60;;;15.57;;
49450;SDS011;35336;48.400;10.886;2023-12-07T00:36:24;20.20;;;15.60;;
49450;SDS011;35336;48.400;10.886;2023-12-07T00:36:39;19.77;;;15.18;;
49450;SDS011;35336;48.400;10.886;2023-12-07T00:36:55;20.30;;;15.20;;
49450;SDS011;35336;48.400;10.886;2023-12-07T00:37:10;19.53;;;15.03;;
49450;SDS011;35336;48.400;10.886;2023-12-07T00:37:25;18.93;;;15.00;;
49450;SDS011;35336;48.400;10.886;2023-12-07T00:37:41;19.67;;;15.03;;
49450;SDS011;35336;48.400;10.886;2023-12-07T00:37:56;18.98;;;14.50;;
49450;SDS011;35336;48.400;10.886;2023-12-07T00:38:11;19.10;;;14.63;;
49450;SDS011;35336;48.400;10.886;2023-12-07T00:38:26;20.07;;;15.17;;
49450;SDS011;35336;48.400;10.886;2023-12-07T00:38:42;18.47;;;14.73;;
49450;SDS011;35336;48.400;10.886;2023-12-07T00:38:57;19.07;;;14.83;;
49450;SDS011;35336;48.400;10.886;2023-12-07T00:39:12;19.73;;;15.13;;
49450;SDS011;35336;48.400;10.886;2023-12-07T00:39:27;19.73;;;15.13;;
49450;SDS011;35336;48.400;10.886;2023-12-07T00:39:45;19.92;;;15.48;;
49450;SDS011;35336;48.400;10.886;2023-12-07T00:40:00;18.87;;;15.03;;
49450;SDS011;35336;48.400;10.886;2023-12-07T00:40:15;19.38;;;15.32;;
49450;SDS011;35336;48.400;10.886;2023-12-07T00:40:31;19.57;;;14.93;;
49450;SDS011;35336;48.400;10.886;2023-12-07T00:40:46;19.37;;;14.87;;
49450;SDS011;35336;48.400;10.886;2023-12-07T00:41:01;19.23;;;14.93;;
49450;SDS011;35336;48.400;10.886;2023-12-07T00:41:17;18.73;;;14.27;;
49450;SDS011;35336;48.400;10.886;2023-12-07T00:41:32;19.87;;;14.40;;
49450;SDS011;35336;48.400;10.886;2023-12-07T00:41:47;20.70;;;15.23;;
49450;SDS011;35336;48.400;10.886;2023-12-07T00:42:03;18.48;;;14.95;;
49450;SDS011;35336;48.400;10.886;2023-12-07T00:42:18;17.90;;;14.57;;
49450;SDS011;35336;48.400;10.886;2023-12-07T00:42:33;19.73;;;15.00;;
49450;SDS011;35336;48.400;10.886;2023-12-07T00:42:49;19.73;;;15.27;;
49450;SDS011;35336;48.400;10.886;2023-12-07T00:43:04;18.73;;;15.43;;
49450;SDS011;35336;48.400;10.886;2023-12-07T00:43:19;19.17;;;15.20;;
49450;SDS011;35336;48.400;10.886;2023-12-07T00:43:37;19.73;;;15.02;;
49450;SDS011;35336;48.400;10.886;2023-12-07T00:43:52;19.50;;;15.03;;
49450;SDS011;35336;48.400;10.886;2023-12-07T00:44:07;19.37;;;15.27;;
49450;SDS011;35336;48.400;10.886;2023-12-07T00:44:23;19.30;;;15.13;;
49450;SDS011;35336;48.400;10.886;2023-12-07T00:44:41;19.53;;;14.70;;
49450;SDS011;35336;48.400;10.886;2023-12-07T00:44:57;19.80;;;14.80;;
49450;SDS011;35336;48.400;10.886;2023-12-07T00:45:12;19.97;;;14.60;;
49450;SDS011;35336;48.400;10.886;2023-12-07T00:45:27;19.80;;;14.43;;
49450;SDS011;35336;48.400;10.886;2023-12-07T00:45:42;18.63;;;14.55;;
49450;SDS011;35336;48.400;10.886;2023-12-07T00:45:58;18.50;;;14.97;;
49450;SDS011;35336;48.400;10.886;2023-12-07T00:46:13;19.73;;;15.00;;
49450;SDS011;35336;48.400;10.886;2023-12-07T00:46:28;20.13;;;14.80;;
49450;SDS011;35336;48.400;10.886;2023-12-07T00:46:43;19.07;;;14.60;;
49450;SDS011;35336;48.400;10.886;2023-12-07T00:46:59;19.38;;;14.75;;
49450;SDS011;35336;48.400;10.886;2023-12-07T00:47:14;18.90;;;14.63;;
49450;SDS011;35336;48.400;10.886;2023-12-07T00:47:32;18.23;;;14.53;;
49450;SDS011;35336;48.400;10.886;2023-12-07T00:47:47;20.05;;;14.90;;
49450;SDS011;35336;48.400;10.886;2023-12-07T00:48:02;21.40;;;15.93;;
49450;SDS011;35336;48.400;10.886;2023-12-07T00:48:18;21.37;;;16.83;;
49450;SDS011;35336;48.400;10.886;2023-12-07T00:48:33;25.23;;;19.17;;
49450;SDS011;35336;48.400;10.886;2023-12-07T00:48:48;31.65;;;22.52;;
49450;SDS011;35336;48.400;10.886;2023-12-07T00:49:03;34.10;;;23.67;;
49450;SDS011;35336;48.400;10.886;2023-12-07T00:49:19;32.70;;;22.80;;
49450;SDS011;35336;48.400;10.886;2023-12-07T00:49:37;30.87;;;21.40;;
49450;SDS011;35336;48.400;10.886;2023-12-07T00:49:55;33.47;;;22.67;;
49450;SDS011;35336;48.400;10.886;2023-12-07T00:50:13;37.47;;;24.05;;
49450;SDS011;35336;48.400;10.886;2023-12-07T00:50:28;29.25;;;21.50;;
49450;SDS011;35336;48.400;10.886;2023-12-07T00:50:44;24.20;;;18.33;;
49450;SDS011;35336;48.400;10.886;2023-12-07T00:50:59;22.53;;;17.17;;
49450;SDS011;35336;48.400;10.886;2023-12-07T00:51:14;22.20;;;16.57;;
49450;SDS011;35336;48.400;10.886;2023-12-07T00:51:29;20.58;;;15.63;;
49450;SDS011;35336;48.400;10.886;2023-12-07T00:51:46;20.07;;;14.93;;
49450;SDS011;35336;48.400;10.886;2023-12-07T00:52:04;20.65;;;14.60;;
49450;SDS011;35336;48.400;10.886;2023-12-07T00:52:19;20.90;;;14.57;;
49450;SDS011;35336;48.400;10.886;2023-12-07T00:52:34;19.97;;;14.97;;
49450;SDS011;35336;48.400;10.886;2023-12-07T00:52:50;19.37;;;14.70;;
49450;SDS011;35336;48.400;10.886;2023-12-07T00:53:07;19.38;;;14.55;;
49450;SDS011;35336;48.400;10.886;2023-12-07T00:53:22;18.75;;;14.55;;
49450;SDS011;35336;48.400;10.886;2023-12-07T00:53:38;18.57;;;14.57;;
49450;SDS011;35336;48.400;10.886;2023-12-07T00:53:55;19.55;;;14.85;;
49450;SDS011;35336;48.400;10.886;2023-12-07T00:54:10;20.95;;;15.20;;
49450;SDS011;35336;48.400;10.886;2023-12-07T00:54:25;20.03;;;14.67;;
49450;SDS011;35336;48.400;10.886;2023-12-07T00:54:41;19.93;;;14.90;;
49450;SDS011;35336;48.400;10.886;2023-12-07T00:54:56;20.30;;;15.20;;
49450;SDS011;35336;48.400;10.886;2023-12-07T00:55:13;21.02;;;14.93;;
49450;SDS011;35336;48.400;10.886;2023-12-07T00:55:29;21.08;;;15.10;;
49450;SDS011;35336;48.400;10.886;2023-12-07T00:55:44;19.50;;;14.97;;
49450;SDS011;35336;48.400;10.886;2023-12-07T00:55:59;19.43;;;14.67;;
49450;SDS011;35336;48.400;10.886;2023-12-07T00:56:14;19.52;;;14.80;;
49450;SDS011;35336;48.400;10.886;2023-12-07T00:56:30;18.93;;;14.77;;
49450;SDS011;35336;48.400;10.886;2023-12-07T00:56:45;19.37;;;14.83;;
49450;SDS011;35336;48.400;10.886;2023-12-07T00:57:03;20.80;;;15.03;;
49450;SDS011;35336;48.400;10.886;2023-12-07T00:57:18;19.42;;;14.75;;
49450;SDS011;35336;48.400;10.886;2023-12-07T00:57:36;18.92;;;14.80;;
49450;SDS011;35336;48.400;10.886;2023-12-07T00:57:51;19.53;;;14.67;;
49450;SDS011;35336;48.400;10.886;2023-12-07T00:58:06;17.90;;;13.80;;
49450;SDS011;35336;48.400;10.886;2023-12-07T00:58:24;19.13;;;13.93;;
49450;SDS011;35336;48.400;10.886;2023-12-07T00:58:40;20.90;;;14.63;;
49450;SDS011;35336;48.400;10.886;2023-12-07T00:58:55;23.70;;;15.50;;
49450;SDS011;35336;48.400;10.886;2023-12-07T00:59:10;25.42;;;16.02;;
49450;SDS011;35336;48.400;10.886;2023-12-07T00:59:25;22.60;;;15.33;;
49450;SDS011;35336;48.400;10.886;2023-12-07T00:59:41;20.73;;;14.67;;
49450;SDS011;35336;48.400;10.886;2023-12-07T00:59:59;19.88;;;14.95;;
49450;SDS011;35336;48.400;10.886;2023-12-07T01:00:14;21.47;;;15.27;;
49450;SDS011;35336;48.400;10.886;2023-12-07T01:00:30;21.83;;;14.77;;
49450;SDS011;35336;48.400;10.886;2023-12-07T01:00:45;19.93;;;14.67;;
49450;SDS011;35336;48.400;10.886;2023-12-07T01:01:00;19.10;;;14.87;;
49450;SDS011;35336;48.400;10.886;2023-12-07T01:01:16;20.25;;;15.38;;
49450;SDS011;35336;48.400;10.886;2023-12-07T01:01:31;20.47;;;15.13;;
49450;SDS011;35336;48.400;10.886;2023-12-07T01:01:46;20.97;;;14.67;;
49450;SDS011;35336;48.400;10.886;2023-12-07T01:02:04;21.17;;;15.10;;
49450;SDS011;35336;48.400;10.886;2023-12-07T01:02:20;19.45;;;14.90;;
49450;SDS011;35336;48.400;10.886;2023-12-07T01:02:36;19.10;;;14.63;;
49450;SDS011;35336;48.400;10.886;2023-12-07T01:02:51;18.48;;;14.40;;
49450;SDS011;35336;48.400;10.886;2023-12-07T01:03:09;19.80;;;15.30;;
49450;SDS011;35336;48.400;10.886;2023-12-07T01:03:24;20.73;;;15.87;;
49450;SDS011;35336;48.400;10.886;2023-12-07T01:03:39;20.35;;;15.60;;
49450;SDS011;35336;48.400;10.886;2023-12-07T01:03:54;20.73;;;15.43;;
49450;SDS011;35336;48.400;10.886;2023-12-07T01:04:10;22.13;;;15.57;;
49450;SDS011;35336;48.400;10.886;2023-12-07T01:04:25;21.67;;;15.63;;
49450;SDS011;35336;48.400;10.886;2023-12-07T01:04:40;20.27;;;15.27;;
49450;SDS011;35336;48.400;10.886;2023-12-07T01:04:55;21.20;;;15.20;;
49450;SDS011;35336;48.400;10.886;2023-12-07T01:05:11;20.20;;;15.27;;
49450;SDS011;35336;48.400;10.886;2023-12-07T01:05:26;19.53;;;15.57;;
49450;SDS011;35336;48.400;10.886;2023-12-07T01:05:41;21.00;;;15.80;;
49450;SDS011;35336;48.400;10.886;2023-12-07T01:05:56;21.38;;;15.35;;
49450;SDS011;35336;48.400;10.886;2023-12-07T01:06:12;20.43;;;14.73;;
49450;SDS011;35336;48.400;10.886;2023-12-07T01:06:27;19.20;;;14.30;;
49450;SDS011;35336;48.400;10.886;2023-12-07T01:06:42;19.60;;;14.93;;
49450;SDS011;35336;48.400;10.886;2023-12-07T01:06:58;19.90;;;14.93;;
49450;SDS011;35336;48.400;10.886;2023-12-07T01:07:14;20.08;;;14.63;;
49450;SDS011;35336;48.400;10.886;2023-12-07T01:07:29;19.98;;;14.93;;
49450;SDS011;35336;48.400;10.886;2023-12-07T01:07:45;19.37;;;15.00;;
49450;SDS011;35336;48.400;10.886;2023-12-07T01:08:02;19.83;;;14.88;;
49450;SDS011;35336;48.400;10.886;2023-12-07T01:08:18;20.83;;;14.95;;
49450;SDS011;35336;48.400;10.886;2023-12-07T01:08:33;20.10;;;14.77;;
49450;SDS011;35336;48.400;10.886;2023-12-07T01:08:48;21.05;;;15.55;;
49450;SDS011;35336;48.400;10.886;2023-12-07T01:09:03;22.80;;;16.43;;
49450;SDS011;35336;48.400;10.886;2023-12-07T01:09:19;24.63;;;17.13;;
49450;SDS011;35336;48.400;10.886;2023-12-07T01:09:34;25.57;;;17.00;;
49450;SDS011;35336;48.400;10.886;2023-12-07T01:09:49;24.80;;;16.83;;
49450;SDS011;35336;48.400;10.886;2023-12-07T01:10:07;25.92;;;17.73;;
49450;SDS011;35336;48.400;10.886;2023-12-07T01:10:22;24.55;;;16.88;;
49450;SDS011;35336;48.400;10.886;2023-12-07T01:10:38;24.43;;;16.07;;
49450;SDS011;35336;48.400;10.886;2023-12-07T01:10:53;24.57;;;16.03;;
49450;SDS011;35336;48.400;10.886;2023-12-07T01:11:11;23.50;;;16.17;;
49450;SDS011;35336;48.400;10.886;2023-12-07T01:11:26;21.85;;;15.38;;
49450;SDS011;35336;48.400;10.886;2023-12-07T01:11:43;21.50;;;15.20;;
49450;SDS011;35336;48.400;10.886;2023-12-07T01:11:59;20.15;;;14.98;;
49450;SDS011;35336;48.400;10.886;2023-12-07T01:12:14;19.92;;;15.20;;
49450;SDS011;35336;48.400;10.886;2023-12-07T01:12:29;20.13;;;15.33;;
49450;SDS011;35336;48.400;10.886;2023-12-07T01:12:47;19.83;;;15.07;;
49450;SDS011;35336;48.400;10.886;2023-12-07T01:13:02;20.55;;;15.48;;
49450;SDS011;35336;48.400;10.886;2023-12-07T01:13:17;20.73;;;15.30;;
49450;SDS011;35336;48.400;10.886;2023-12-07T01:13:35;20.33;;;14.83;;
49450;SDS011;35336;48.400;10.886;2023-12-07T01:13:50;20.35;;;15.20;;
49450;SDS011;35336;48.400;10.886;2023-12-07T01:14:08;19.88;;;14.90;;
49450;SDS011;35336;48.400;10.886;2023-12-07T01:14:23;19.53;;;14.63;;
49450;SDS011;35336;48.400;10.886;2023-12-07T01:14:41;20.05;;;14.65;;
49450;SDS011;35336;48.400;10.886;2023-12-07T01:14:56;19.23;;;13.87;;
49450;SDS011;35336;48.400;10.886;2023-12-07T01:15:13;19.13;;;14.27;;
49450;SDS011;35336;48.400;10.886;2023-12-07T01:15:31;19.25;;;14.45;;
49450;SDS011;35336;48.400;10.886;2023-12-07T01:15:46;17.10;;;13.85;;
49450;SDS011;35336;48.400;10.886;2023-12-07T01:16:01;17.87;;;14.00;;
49450;SDS011;35336;48.400;10.886;2023-12-07T01:16:19;18.63;;;14.20;;
49450;SDS011;35336;48.400;10.886;2023-12-07T01:16:34;18.10;;;14.23;;
49450;SDS011;35336;48.400;10.886;2023-12-07T01:16:49;17.63;;;14.20;;
49450;SDS011;35336;48.400;10.886;2023-12-07T01:17:05;17.53;;;14.17;;
49450;SDS011;35336;48.400;10.886;2023-12-07T01:17:20;19.42;;;14.70;;
49450;SDS011;35336;48.400;10.886;2023-12-07T01:17:38;19.37;;;14.90;;
49450;SDS011;35336;48.400;10.886;2023-12-07T01:17:56;18.20;;;14.38;;
49450;SDS011;35336;48.400;10.886;2023-12-07T01:18:11;19.52;;;14.18;;
49450;SDS011;35336;48.400;10.886;2023-12-07T01:18:26;19.90;;;14.50;;
49450;SDS011;35336;48.400;10.886;2023-12-07T01:18:42;18.67;;;14.07;;
49450;SDS011;35336;48.400;10.886;2023-12-07T01:18:57;18.23;;;13.90;;
49450;SDS011;35336;48.400;10.886;2023-12-07T01:19:12;20.17;;;14.07;;
49450;SDS011;35336;48.400;10.886;2023-12-07T01:19:27;19.48;;;13.68;;
49450;SDS011;35336;48.400;10.886;2023-12-07T01:19:43;17.80;;;13.93;;
49450;SDS011;35336;48.400;10.886;2023-12-07T01:19:58;18.17;;;13.83;;
49450;SDS011;35336;48.400;10.886;2023-12-07T01:20:13;17.47;;;13.53;;
49450;SDS011;35336;48.400;10.886;2023-12-07T01:20:28;16.37;;;13.47;;
49450;SDS011;35336;48.400;10.886;2023-12-07T01:20:44;17.02;;;13.45;;
49450;SDS011;35336;48.400;10.886;2023-12-07T01:21:01;18.02;;;13.95;;
49450;SDS011;35336;48.400;10.886;2023-12-07T01:21:17;18.43;;;14.03;;
49450;SDS011;35336;48.400;10.886;2023-12-07T01:21:34;18.67;;;13.93;;
49450;SDS011;35336;48.400;10.886;2023-12-07T01:21:52;17.57;;;14.10;;
49450;SDS011;35336;48.400;10.886;2023-12-07T01:22:07;17.20;;;13.65;;
49450;SDS011;35336;48.400;10.886;2023-12-07T01:22:22;18.03;;;13.27;;
49450;SDS011;35336;48.400;10.886;2023-12-07T01:22:38;17.13;;;13.07;;
49450;SDS011;35336;48.400;10.886;2023-12-07T01:22:57;17.08;;;13.00;;
49450;SDS011;35336;48.400;10.886;2023-12-07T01:23:12;18.20;;;13.17;;
49450;SDS011;35336;48.400;10.886;2023-12-07T01:23:27;18.73;;;13.25;;
49450;SDS011;35336;48.400;10.886;2023-12-07T01:23:42;17.73;;;13.00;;
49450;SDS011;35336;48.400;10.886;2023-12-07T01:23:58;16.20;;;12.83;;
49450;SDS011;35336;48.400;10.886;2023-12-07T01:24:13;17.07;;;13.43;;
49450;SDS011;35336;48.400;10.886;2023-12-07T01:24:28;17.92;;;13.75;;
49450;SDS011;35336;48.400;10.886;2023-12-07T01:24:44;19.75;;;13.68;;
49450;SDS011;35336;48.400;10.886;2023-12-07T01:24:59;20.37;;;13.60;;
49450;SDS011;35336;48.400;10.886;2023-12-07T01:25:14;18.07;;;13.20;;
49450;SDS011;35336;48.400;10.886;2023-12-07T01:25:29;19.10;;;13.13;;
49450;SDS011;35336;48.400;10.886;2023-12-07T01:25:45;21.13;;;13.45;;
49450;SDS011;35336;48.400;10.886;2023-12-07T01:26:00;19.83;;;13.60;;
49450;SDS011;35336;48.400;10.886;2023-12-07T01:26:17;18.47;;;13.50;;
49450;SDS011;35336;48.400;10.886;2023-12-07T01:26:33;17.97;;;13.37;;
49450;SDS011;35336;48.400;10.886;2023-12-07T01:26:48;16.33;;;12.93;;
49450;SDS011;35336;48.400;10.886;2023-12-07T01:27:03;17.70;;;13.00;;
49450;SDS011;35336;48.400;10.886;2023-12-07T01:27:18;18.37;;;13.07;;
49450;SDS011;35336;48.400;10.886;2023-12-07T01:27:34;17.67;;;12.97;;
49450;SDS011;35336;48.400;10.886;2023-12-07T01:27:52;17.73;;;13.30;;
49450;SDS011;35336;48.400;10.886;2023-12-07T01:28:09;17.63;;;13.35;;
49450;SDS011;35336;48.400;10.886;2023-12-07T01:28:25;17.60;;;13.37;;
49450;SDS011;35336;48.400;10.886;2023-12-07T01:28:40;16.67;;;13.00;;
49450;SDS011;35336;48.400;10.886;2023-12-07T01:28:57;16.57;;;12.80;;
49450;SDS011;35336;48.400;10.886;2023-12-07T01:29:12;16.65;;;12.77;;
49450;SDS011;35336;48.400;10.886;2023-12-07T01:29:30;17.17;;;13.03;;
49450;SDS011;35336;48.400;10.886;2023-12-07T01:29:46;16.88;;;13.00;;
49450;SDS011;35336;48.400;10.886;2023-12-07T01:30:01;17.92;;;13.60;;
49450;SDS011;35336;48.400;10.886;2023-12-07T01:30:16;18.05;;;13.50;;
49450;SDS011;35336;48.400;10.886;2023-12-07T01:30:32;15.93;;;12.87;;
49450;SDS011;35336;48.400;10.886;2023-12-07T01:30:47;16.37;;;13.27;;